Time;durP1;ratioP1;P1;durP2;ratioP2;P2;SDS_P1;SDS_P2;PMS_P1;PMS_P2;Temp;Humidity;BMP_temperature;BMP_pressure;BME280_temperature;BME280_humidity;BME280_pressure;Samples;Min_cycle;Max_cycle;Signal;HPM_P1;HPM_P2
2021/06/22 00:00:28;;;;;;;16.70;14.30;;;;;;;;;;6183604;23;20344;-87
2021/06/22 00:02:54;;;;;;;16.98;14.98;;;;;;;;;;6182181;23;20347;-88
2021/06/22 00:05:21;;;;;;;21.42;14.68;;;;;;;;;;6183761;23;20340;-86
2021/06/22 00:07:51;;;;;;;15.83;14.37;;;;;;;;;;6183567;23;20863;-87
2021/06/22 00:10:18;;;;;;;16.00;14.33;;;;;;;;;;6181632;23;20406;-85
2021/06/22 00:12:45;;;;;;;18.85;15.00;;;;;;;;;;6184348;23;20347;-83
2021/06/22 00:15:12;;;;;;;16.83;15.20;;;;;;;;;;6181794;23;20348;-86
2021/06/22 00:17:38;;;;;;;16.75;14.95;;;;;;;;;;6182913;23;20375;-83
2021/06/22 00:20:05;;;;;;;18.87;16.87;;;;;;;;;;6184050;23;20368;-86
2021/06/22 00:22:31;;;;;;;18.75;16.17;;;;;;;;;;6184192;23;20670;-85
2021/06/22 00:24:57;;;;;;;18.15;16.25;;;;;;;;;;6182196;23;20390;-87
2021/06/22 00:27:23;;;;;;;18.83;16.83;;;;;;;;;;6181871;23;20361;-87
2021/06/22 00:29:50;;;;;;;19.38;17.42;;;;;;;;;;6181731;23;20402;-86
2021/06/22 00:32:17;;;;;;;20.77;16.73;;;;;;;;;;6182210;23;20679;-83
2021/06/22 00:34:44;;;;;;;19.30;17.40;;;;;;;;;;6181904;23;20347;-86
2021/06/22 00:37:11;;;;;;;19.03;17.13;;;;;;;;;;6181017;23;20414;-87
2021/06/22 00:39:37;;;;;;;21.03;18.83;;;;;;;;;;6184065;23;20814;-85
2021/06/22 00:42:03;;;;;;;21.63;18.47;;;;;;;;;;6181616;23;20358;-86
2021/06/22 00:44:29;;;;;;;18.37;16.47;;;;;;;;;;6181626;23;20917;-86
2021/06/22 00:46:55;;;;;;;20.77;17.95;;;;;;;;;;6181631;23;20375;-85
2021/06/22 00:49:21;;;;;;;19.45;17.38;;;;;;;;;;6181837;23;20344;-88
2021/06/22 00:51:47;;;;;;;20.23;17.33;;;;;;;;;;6182033;23;20350;-85
2021/06/22 00:54:13;;;;;;;20.42;18.23;;;;;;;;;;6183181;23;20354;-85
2021/06/22 00:56:39;;;;;;;17.88;16.25;;;;;;;;;;6182154;23;20374;-85
2021/06/22 00:59:05;;;;;;;19.48;17.38;;;;;;;;;;6181472;23;20886;-85
2021/06/22 01:01:31;;;;;;;21.65;18.08;;;;;;;;;;6183158;23;20327;-85
2021/06/22 01:03:57;;;;;;;20.90;17.55;;;;;;;;;;6181954;23;20354;-84
2021/06/22 01:06:23;;;;;;;20.88;18.42;;;;;;;;;;6181609;23;20347;-85
2021/06/22 01:08:50;;;;;;;20.13;18.10;;;;;;;;;;6182552;23;20352;-86
2021/06/22 01:11:16;;;;;;;19.63;17.53;;;;;;;;;;6182702;23;20810;-87
2021/06/22 01:13:42;;;;;;;18.80;16.15;;;;;;;;;;6182883;23;20422;-84
2021/06/22 01:16:20;;;;;;;20.05;17.60;;;;;;;;;;6183116;23;20840;-88
2021/06/22 01:18:46;;;;;;;22.38;17.42;;;;;;;;;;6181269;23;20375;-85
2021/06/22 01:21:13;;;;;;;18.45;16.65;;;;;;;;;;6181256;23;20352;-87
2021/06/22 01:23:39;;;;;;;17.33;15.52;;;;;;;;;;6181692;23;20344;-85
2021/06/22 01:26:05;;;;;;;19.73;16.58;;;;;;;;;;6183114;23;20340;-84
2021/06/22 01:28:31;;;;;;;20.38;16.60;;;;;;;;;;6181042;23;20451;-86
2021/06/22 01:30:58;;;;;;;20.75;15.45;;;;;;;;;;6181765;23;20842;-87
2021/06/22 01:33:24;;;;;;;17.50;15.83;;;;;;;;;;6183511;23;20391;-85
2021/06/22 01:35:50;;;;;;;17.42;15.60;;;;;;;;;;6181878;23;20865;-85
2021/06/22 01:38:16;;;;;;;18.52;15.55;;;;;;;;;;6181001;23;20368;-86
2021/06/22 01:40:43;;;;;;;16.15;14.55;;;;;;;;;;6183562;23;20351;-87
2021/06/22 01:43:10;;;;;;;16.98;14.48;;;;;;;;;;6183418;23;20343;-85
2021/06/22 01:45:36;;;;;;;18.50;13.85;;;;;;;;;;6184799;23;20351;-86
2021/06/22 01:48:01;;;;;;;15.57;13.82;;;;;;;;;;6182485;23;20343;-88
2021/06/22 01:50:27;;;;;;;17.25;13.15;;;;;;;;;;6183086;23;20825;-85
2021/06/22 01:52:53;;;;;;;14.40;12.27;;;;;;;;;;6183438;23;20343;-86
2021/06/22 01:55:39;;;;;;;21.17;11.60;;;;;;;;;;6183495;23;20790;-86
2021/06/22 01:58:09;;;;;;;11.93;10.73;;;;;;;;;;6184031;23;20379;-86
2021/06/22 02:00:36;;;;;;;13.85;11.00;;;;;;;;;;6184881;23;20421;-85
2021/06/22 02:03:02;;;;;;;12.30;11.00;;;;;;;;;;6182842;23;20362;-87
2021/06/22 02:05:28;;;;;;;12.63;10.73;;;;;;;;;;6182681;23;20438;-86
2021/06/22 02:07:54;;;;;;;11.57;10.47;;;;;;;;;;6183207;23;20379;-89
2021/06/22 02:10:20;;;;;;;12.15;10.40;;;;;;;;;;6183077;23;20442;-85
2021/06/22 02:12:46;;;;;;;11.95;10.65;;;;;;;;;;6184553;23;20354;-84
2021/06/22 02:15:12;;;;;;;14.60;11.25;;;;;;;;;;6185154;23;20344;-87
2021/06/22 02:17:38;;;;;;;15.05;12.30;;;;;;;;;;6184502;23;20375;-85
2021/06/22 02:20:05;;;;;;;12.40;11.10;;;;;;;;;;6183047;23;20354;-87
2021/06/22 02:22:31;;;;;;;16.40;12.32;;;;;;;;;;6183450;23;20440;-86
2021/06/22 02:24:57;;;;;;;13.65;11.60;;;;;;;;;;6182710;23;20387;-86
2021/06/22 02:27:31;;;;;;;13.70;11.87;;;;;;;;;;6183271;23;20678;-85
2021/06/22 02:29:57;;;;;;;14.00;12.48;;;;;;;;;;6182732;23;20863;-84
2021/06/22 02:32:24;;;;;;;13.25;11.25;;;;;;;;;;6184334;23;20340;-85
2021/06/22 02:34:50;;;;;;;12.75;10.32;;;;;;;;;;6184139;23;20344;-85
2021/06/22 02:37:16;;;;;;;14.07;11.30;;;;;;;;;;6182506;23;20378;-86
2021/06/22 02:39:43;;;;;;;17.50;12.27;;;;;;;;;;6182646;23;20677;-84
2021/06/22 02:42:08;;;;;;;13.77;11.85;;;;;;;;;;6182477;23;20872;-87
2021/06/22 02:44:34;;;;;;;17.60;14.00;;;;;;;;;;6182428;23;20348;-85
2021/06/22 02:47:01;;;;;;;23.60;16.98;;;;;;;;;;6182137;23;20670;-86
2021/06/22 02:49:27;;;;;;;26.23;17.07;;;;;;;;;;6183759;23;20344;-86
2021/06/22 02:51:53;;;;;;;24.55;17.08;;;;;;;;;;6182644;23;20367;-86
2021/06/22 02:54:19;;;;;;;30.45;18.88;;;;;;;;;;6182541;23;20889;-86
2021/06/22 02:56:45;;;;;;;31.38;19.48;;;;;;;;;;6184364;23;20344;-86
2021/06/22 02:59:11;;;;;;;31.88;19.48;;;;;;;;;;6182217;23;20379;-87
2021/06/22 03:01:37;;;;;;;30.43;20.23;;;;;;;;;;6184259;23;20897;-87
2021/06/22 03:04:03;;;;;;;34.37;21.20;;;;;;;;;;6183820;23;20426;-85
2021/06/22 03:06:29;;;;;;;32.30;23.00;;;;;;;;;;6182080;23;20367;-84
2021/06/22 03:08:55;;;;;;;40.70;24.55;;;;;;;;;;6182396;23;20387;-88
2021/06/22 03:11:21;;;;;;;35.10;24.60;;;;;;;;;;6181805;23;20348;-87
2021/06/22 03:13:47;;;;;;;38.75;23.65;;;;;;;;;;6182087;23;20475;-86
2021/06/22 03:16:13;;;;;;;42.63;27.23;;;;;;;;;;6183689;23;20351;-85
2021/06/22 03:18:39;;;;;;;40.38;26.60;;;;;;;;;;6182656;23;20375;-86
2021/06/22 03:21:05;;;;;;;41.58;28.27;;;;;;;;;;6182563;23;20347;-85
2021/06/22 03:23:31;;;;;;;46.70;30.20;;;;;;;;;;6182071;23;20358;-85
2021/06/22 03:25:57;;;;;;;43.85;28.88;;;;;;;;;;6182619;23;20446;-84
2021/06/22 03:28:23;;;;;;;45.67;30.77;;;;;;;;;;6182368;23;20826;-86
2021/06/22 03:30:49;;;;;;;49.03;33.15;;;;;;;;;;6183689;23;20422;-83
2021/06/22 03:33:17;;;;;;;50.90;33.08;;;;;;;;;;6182494;23;20654;-86
2021/06/22 03:35:43;;;;;;;48.07;34.27;;;;;;;;;;6181983;23;20363;-86
2021/06/22 03:38:09;;;;;;;54.17;36.58;;;;;;;;;;6183172;23;20375;-86
2021/06/22 03:40:35;;;;;;;57.05;37.63;;;;;;;;;;6183597;23;20429;-84
2021/06/22 03:43:01;;;;;;;47.72;35.28;;;;;;;;;;6183892;23;20427;-85
2021/06/22 03:45:28;;;;;;;53.60;36.95;;;;;;;;;;6183024;23;20873;-85
2021/06/22 03:47:54;;;;;;;56.65;36.42;;;;;;;;;;6182063;23;20351;-84
2021/06/22 03:50:20;;;;;;;52.97;36.73;;;;;;;;;;6181494;23;20442;-85
2021/06/22 03:52:46;;;;;;;53.67;36.92;;;;;;;;;;6182337;23;20351;-86
2021/06/22 03:55:31;;;;;;;49.20;35.07;;;;;;;;;;6184194;23;20342;-85
2021/06/22 03:57:59;;;;;;;47.80;34.47;;;;;;;;;;6181910;23;20447;-85
2021/06/22 04:00:25;;;;;;;51.25;33.88;;;;;;;;;;6182094;23;20360;-86
2021/06/22 04:03:01;;;;;;;45.47;32.35;;;;;;;;;;6182998;23;20338;-87
2021/06/22 04:05:28;;;;;;;48.95;31.60;;;;;;;;;;6181733;23;20434;-88
2021/06/22 04:07:54;;;;;;;43.38;30.60;;;;;;;;;;6181648;23;20356;-86
2021/06/22 04:10:20;;;;;;;41.38;30.02;;;;;;;;;;6181733;23;20909;-85
2021/06/22 04:12:46;;;;;;;39.83;27.98;;;;;;;;;;6181673;23;20359;-85
2021/06/22 04:15:13;;;;;;;35.28;26.48;;;;;;;;;;6181772;23;20343;-85
2021/06/22 04:17:42;;;;;;;39.10;26.23;;;;;;;;;;6181366;23;20438;-85
2021/06/22 04:20:08;;;;;;;32.05;23.23;;;;;;;;;;6181389;23;20383;-89
2021/06/22 04:22:34;;;;;;;28.80;19.70;;;;;;;;;;6181605;23;20383;-87
2021/06/22 04:25:00;;;;;;;27.60;18.83;;;;;;;;;;6183420;23;20348;-87
2021/06/22 04:27:32;;;;;;;22.88;16.88;;;;;;;;;;6181682;23;20351;-89
2021/06/22 04:29:58;;;;;;;20.35;15.48;;;;;;;;;;6181284;23;20360;-86
2021/06/22 04:32:24;;;;;;;21.20;14.55;;;;;;;;;;6183107;23;20339;-86
2021/06/22 04:34:50;;;;;;;19.30;13.00;;;;;;;;;;6181451;23;20343;-87
2021/06/22 04:37:17;;;;;;;15.57;10.85;;;;;;;;;;6181004;23;20398;-87
2021/06/22 04:39:43;;;;;;;13.88;10.02;;;;;;;;;;6181590;23;20401;-89
2021/06/22 04:42:09;;;;;;;13.80;10.07;;;;;;;;;;6181909;23;20698;-89
2021/06/22 04:44:35;;;;;;;11.95;9.00;;;;;;;;;;6181716;23;20444;-86
2021/06/22 04:47:01;;;;;;;10.93;8.63;;;;;;;;;;6181418;23;20394;-87
2021/06/22 04:49:27;;;;;;;12.00;8.90;;;;;;;;;;6181370;23;20351;-86
2021/06/22 04:51:53;;;;;;;13.27;8.45;;;;;;;;;;6181875;23;20340;-87
2021/06/22 04:54:23;;;;;;;11.07;9.10;;;;;;;;;;6183382;23;20368;-87
2021/06/22 04:56:52;;;;;;;14.60;10.82;;;;;;;;;;6183150;23;20344;-88
2021/06/22 04:59:18;;;;;;;12.87;9.77;;;;;;;;;;6180977;23;20470;-87
2021/06/22 05:01:44;;;;;;;13.20;10.15;;;;;;;;;;6181336;23;20830;-87
2021/06/22 05:04:11;;;;;;;10.98;9.73;;;;;;;;;;6181436;23;20348;-87
2021/06/22 05:06:38;;;;;;;13.05;10.18;;;;;;;;;;6183161;23;20339;-86
2021/06/22 05:09:05;;;;;;;10.13;9.05;;;;;;;;;;6181293;23;20807;-86
2021/06/22 05:11:31;;;;;;;12.50;8.93;;;;;;;;;;6181571;23;20355;-86
2021/06/22 05:13:57;;;;;;;11.70;8.80;;;;;;;;;;6181450;23;20348;-88
2021/06/22 05:16:23;;;;;;;12.00;9.23;;;;;;;;;;6180998;23;20362;-86
2021/06/22 05:18:49;;;;;;;10.68;8.88;;;;;;;;;;6182365;23;20861;-90
2021/06/22 05:21:15;;;;;;;13.48;9.13;;;;;;;;;;6180993;23;20348;-85
2021/06/22 05:23:41;;;;;;;10.43;8.27;;;;;;;;;;6181432;23;20965;-89
2021/06/22 05:26:07;;;;;;;10.13;9.00;;;;;;;;;;6183007;23;20332;-88
2021/06/22 05:28:33;;;;;;;11.73;8.80;;;;;;;;;;6181950;23;20924;-85
2021/06/22 05:30:59;;;;;;;9.97;7.77;;;;;;;;;;6183707;23;20438;-84
2021/06/22 05:33:25;;;;;;;10.77;7.60;;;;;;;;;;6181648;23;20350;-84
2021/06/22 05:35:52;;;;;;;9.55;7.50;;;;;;;;;;6183272;23;20398;-88
2021/06/22 05:38:18;;;;;;;8.82;6.63;;;;;;;;;;6157627;23;20379;-85
2021/06/22 05:40:44;;;;;;;9.65;6.53;;;;;;;;;;6184015;23;20382;-85
2021/06/22 05:43:10;;;;;;;9.60;6.95;;;;;;;;;;6183804;23;20351;-87
2021/06/22 05:45:36;;;;;;;8.80;6.90;;;;;;;;;;6183476;23;20344;-86
2021/06/22 05:48:02;;;;;;;7.90;6.10;;;;;;;;;;6156410;23;20362;-88
2021/06/22 05:50:29;;;;;;;8.77;7.53;;;;;;;;;;6183619;23;20667;-85
2021/06/22 05:52:56;;;;;;;11.20;9.82;;;;;;;;;;6157292;23;20360;-84
2021/06/22 05:55:22;;;;;;;10.15;8.35;;;;;;;;;;6156861;23;20347;-85
2021/06/22 05:57:49;;;;;;;10.57;9.38;;;;;;;;;;6157010;23;20376;-86
2021/06/22 06:00:16;;;;;;;11.18;10.07;;;;;;;;;;6182482;23;20441;-86
2021/06/22 06:02:42;;;;;;;11.07;9.83;;;;;;;;;;6156893;23;20364;-87
2021/06/22 06:05:09;;;;;;;11.48;10.00;;;;;;;;;;6156603;23;20895;-85
2021/06/22 06:07:35;;;;;;;10.33;9.23;;;;;;;;;;6183768;23;20443;-84
2021/06/22 06:10:01;;;;;;;9.65;8.73;;;;;;;;;;6157333;23;20344;-84
2021/06/22 06:12:27;;;;;;;9.10;8.20;;;;;;;;;;6156971;23;20351;-89
2021/06/22 06:14:53;;;;;;;10.35;7.93;;;;;;;;;;6156439;23;20435;-85
2021/06/22 06:17:19;;;;;;;9.35;8.45;;;;;;;;;;6182823;23;20340;-83
2021/06/22 06:19:46;;;;;;;8.80;7.80;;;;;;;;;;6156509;23;20837;-86
2021/06/22 06:22:11;;;;;;;9.15;8.27;;;;;;;;;;6183524;23;20336;-86
2021/06/22 06:24:38;;;;;;;7.97;7.23;;;;;;;;;;6156587;23;20709;-84
2021/06/22 06:30:00;;;;;;;6.97;6.35;;;;;;;;;;6180614;23;20810;-83
2021/06/22 06:32:26;;;;;;;8.75;7.95;;;;;;;;;;6158792;23;20435;-86
2021/06/22 06:34:52;;;;;;;8.40;7.68;;;;;;;;;;6185340;23;20339;-85
2021/06/22 06:37:18;;;;;;;8.07;7.28;;;;;;;;;;6174578;23;20364;-83
2021/06/22 06:39:44;;;;;;;8.35;6.60;;;;;;;;;;6186833;23;20340;-87
2021/06/22 06:42:10;;;;;;;8.15;6.32;;;;;;;;;;6185648;23;20340;-84
2021/06/22 06:44:36;;;;;;;8.07;6.28;;;;;;;;;;6184488;23;20442;-85
2021/06/22 06:47:03;;;;;;;9.73;7.27;;;;;;;;;;6184261;23;20359;-84
2021/06/22 06:49:35;;;;;;;7.68;6.25;;;;;;;;;;6182512;23;20358;-83
2021/06/22 06:52:01;;;;;;;6.63;5.97;;;;;;;;;;6183864;23;20352;-84
2021/06/22 06:54:29;;;;;;;8.13;6.03;;;;;;;;;;6183677;23;20670;-87
2021/06/22 06:56:55;;;;;;;7.05;5.18;;;;;;;;;;6182948;23;20340;-86
2021/06/22 06:59:23;;;;;;;10.00;5.65;;;;;;;;;;6181884;23;20450;-85
2021/06/22 07:01:49;;;;;;;6.22;4.75;;;;;;;;;;6182794;23;20722;-84
2021/06/22 07:04:15;;;;;;;6.93;4.65;;;;;;;;;;6182664;23;20344;-84
2021/06/22 07:06:41;;;;;;;5.50;4.28;;;;;;;;;;6183779;23;20378;-84
2021/06/22 07:09:07;;;;;;;6.30;3.80;;;;;;;;;;6183747;23;20336;-86
2021/06/22 07:11:33;;;;;;;7.03;4.10;;;;;;;;;;6183415;23;20344;-85
2021/06/22 07:14:02;;;;;;;5.88;3.65;;;;;;;;;;6183197;23;20442;-87
2021/06/22 07:16:28;;;;;;;5.82;3.97;;;;;;;;;;6184981;23;20356;-85
2021/06/22 07:18:54;;;;;;;6.47;4.30;;;;;;;;;;6181922;23;20375;-87
2021/06/22 07:21:20;;;;;;;5.05;4.35;;;;;;;;;;6182544;23;20371;-85
2021/06/22 07:23:46;;;;;;;6.63;4.60;;;;;;;;;;6184253;23;20369;-83
2021/06/22 07:26:15;;;;;;;6.80;4.72;;;;;;;;;;6181861;23;20828;-86
2021/06/22 07:28:41;;;;;;;6.60;5.05;;;;;;;;;;6183607;23;20343;-86
2021/06/22 07:31:07;;;;;;;8.40;5.57;;;;;;;;;;6183433;23;20340;-85
2021/06/22 07:33:34;;;;;;;8.05;5.82;;;;;;;;;;6183051;23;20336;-83
2021/06/22 07:36:00;;;;;;;7.53;5.50;;;;;;;;;;6184021;23;20356;-81
2021/06/22 07:38:26;;;;;;;8.40;5.45;;;;;;;;;;6157737;23;20549;-84
2021/06/22 07:40:54;;;;;;;8.52;5.57;;;;;;;;;;6184385;23;20789;-86
2021/06/22 07:43:20;;;;;;;8.88;6.03;;;;;;;;;;6158070;23;20901;-87
2021/06/22 07:45:47;;;;;;;10.18;5.80;;;;;;;;;;6157066;23;20421;-87
2021/06/22 07:48:17;;;;;;;9.23;5.38;;;;;;;;;;6153963;23;20348;-86
2021/06/22 07:50:43;;;;;;;11.30;5.67;;;;;;;;;;6156646;23;20898;-85
2021/06/22 07:53:09;;;;;;;10.15;5.85;;;;;;;;;;6157159;23;20355;-85
2021/06/22 07:55:36;;;;;;;8.88;6.50;;;;;;;;;;6156981;23;20363;-86
2021/06/22 07:58:02;;;;;;;10.48;5.88;;;;;;;;;;6156993;23;20429;-82
2021/06/22 08:00:42;;;;;;;10.57;5.55;;;;;;;;;;6182473;23;20348;-84
2021/06/22 08:03:12;;;;;;;10.88;5.95;;;;;;;;;;6181940;23;20403;-86
2021/06/22 08:05:39;;;;;;;9.48;5.85;;;;;;;;;;6182709;23;20336;-82
2021/06/22 08:08:05;;;;;;;10.30;5.80;;;;;;;;;;6182640;23;20406;-87
2021/06/22 08:10:34;;;;;;;8.90;6.43;;;;;;;;;;6156844;23;20356;-86
2021/06/22 08:13:00;;;;;;;9.87;6.57;;;;;;;;;;6156469;23;21006;-88
2021/06/22 08:15:28;;;;;;;10.73;6.93;;;;;;;;;;6182855;23;20953;-88
2021/06/22 08:17:54;;;;;;;13.02;6.38;;;;;;;;;;6157035;23;20364;-83
2021/06/22 08:20:21;;;;;;;11.70;6.90;;;;;;;;;;6156055;23;20358;-83
2021/06/22 08:22:52;;;;;;;9.73;6.65;;;;;;;;;;6156238;23;20810;-83
2021/06/22 08:25:18;;;;;;;11.30;6.60;;;;;;;;;;6157245;23;20351;-87
2021/06/22 08:27:45;;;;;;;11.02;7.03;;;;;;;;;;6157308;23;20379;-85
2021/06/22 08:30:11;;;;;;;9.27;6.93;;;;;;;;;;6157504;23;20400;-84
2021/06/22 08:32:40;;;;;;;10.48;6.40;;;;;;;;;;6184831;23;20382;-84
2021/06/22 08:35:06;;;;;;;7.70;5.97;;;;;;;;;;6157842;23;20344;-83
2021/06/22 08:37:34;;;;;;;9.07;5.72;;;;;;;;;;6177674;23;20842;-87
2021/06/22 08:40:00;;;;;;;10.48;6.30;;;;;;;;;;6182516;23;20340;-84
2021/06/22 08:42:27;;;;;;;9.30;5.93;;;;;;;;;;6180436;23;20352;-84
2021/06/22 08:44:53;;;;;;;9.63;6.37;;;;;;;;;;6181335;23;20356;-89
2021/06/22 08:47:27;;;;;;;10.27;6.30;;;;;;;;;;6181430;23;20614;-83
2021/06/22 08:49:54;;;;;;;8.30;6.37;;;;;;;;;;6182062;23;20406;-87
2021/06/22 08:52:23;;;;;;;8.77;6.28;;;;;;;;;;6182107;23;20419;-86
2021/06/22 08:54:49;;;;;;;10.80;6.22;;;;;;;;;;6176125;23;20848;-86
2021/06/22 08:57:15;;;;;;;11.93;6.20;;;;;;;;;;6174712;23;20347;-86
2021/06/22 08:59:44;;;;;;;7.03;5.72;;;;;;;;;;6180176;23;20343;-87
2021/06/22 09:02:10;;;;;;;9.02;6.50;;;;;;;;;;6181524;23;20360;-87
2021/06/22 09:04:36;;;;;;;8.60;5.90;;;;;;;;;;6181204;23;20347;-86
2021/06/22 09:07:02;;;;;;;5.88;5.03;;;;;;;;;;6178395;23;20913;-82
2021/06/22 09:09:35;;;;;;;8.00;5.75;;;;;;;;;;6182861;23;20340;-82
2021/06/22 09:12:06;;;;;;;6.70;5.57;;;;;;;;;;6183158;23;20344;-85
2021/06/22 09:14:33;;;;;;;7.53;6.40;;;;;;;;;;6181331;23;20343;-84
2021/06/22 09:17:05;;;;;;;7.55;6.18;;;;;;;;;;6181332;23;20364;-83
2021/06/22 09:19:31;;;;;;;6.70;6.10;;;;;;;;;;6181998;23;20467;-88
2021/06/22 09:22:15;;;;;;;7.30;5.78;;;;;;;;;;6183131;23;20501;-87
2021/06/22 09:25:00;;;;;;;6.55;5.43;;;;;;;;;;6180752;23;20427;-85
2021/06/22 09:27:49;;;;;;;6.72;6.07;;;;;;;;;;6181458;23;20395;-86
2021/06/22 09:30:34;;;;;;;6.30;5.70;;;;;;;;;;6180996;23;20406;-87
2021/06/22 09:33:11;;;;;;;6.07;5.55;;;;;;;;;;6183635;23;20383;-85
2021/06/22 09:35:37;;;;;;;5.20;4.63;;;;;;;;;;6183146;23;20336;-84
2021/06/22 09:38:04;;;;;;;6.20;5.60;;;;;;;;;;6183668;23;20840;-85
2021/06/22 09:40:30;;;;;;;5.20;4.60;;;;;;;;;;6158157;23;20447;-83
2021/06/22 09:42:58;;;;;;;5.07;4.47;;;;;;;;;;6185664;23;20351;-88
2021/06/22 09:45:26;;;;;;;5.50;4.43;;;;;;;;;;6183562;23;20406;-86
2021/06/22 09:47:54;;;;;;;5.82;4.82;;;;;;;;;;6156791;23;20666;-87
2021/06/22 09:50:33;;;;;;;5.10;4.68;;;;;;;;;;6157653;23;20454;-86
2021/06/22 09:53:17;;;;;;;5.68;4.60;;;;;;;;;;6157004;23;20355;-86
2021/06/22 09:55:43;;;;;;;7.10;4.82;;;;;;;;;;6156752;23;20344;-84
2021/06/22 09:58:10;;;;;;;6.03;5.40;;;;;;;;;;6182496;23;20861;-84
2021/06/22 10:00:43;;;;;;;6.70;5.57;;;;;;;;;;6182948;23;20344;-86
2021/06/22 10:03:10;;;;;;;6.40;5.80;;;;;;;;;;6183748;23;20339;-84
2021/06/22 10:05:58;;;;;;;7.22;6.07;;;;;;;;;;6158023;23;20709;-88
2021/06/22 10:08:24;;;;;;;8.13;6.32;;;;;;;;;;6158149;23;20443;-88
2021/06/22 10:10:50;;;;;;;6.88;6.05;;;;;;;;;;6159820;23;20348;-87
2021/06/22 10:13:35;;;;;;;6.70;5.63;;;;;;;;;;6185921;23;20371;-88
2021/06/22 10:16:21;;;;;;;6.73;5.73;;;;;;;;;;6185978;23;20332;-86
2021/06/22 10:18:47;;;;;;;5.78;5.18;;;;;;;;;;6154026;23;20410;-87
2021/06/22 10:21:13;;;;;;;7.43;5.15;;;;;;;;;;6156204;23;20356;-89
2021/06/22 10:23:40;;;;;;;7.20;5.20;;;;;;;;;;6148307;23;20912;-87
2021/06/22 10:26:06;;;;;;;7.73;5.10;;;;;;;;;;6181055;23;20348;-87
2021/06/22 10:28:34;;;;;;;8.27;5.40;;;;;;;;;;6156395;23;20352;-86
2021/06/22 10:31:03;;;;;;;8.13;5.25;;;;;;;;;;6156601;23;20352;-87
2021/06/22 10:33:30;;;;;;;6.70;4.70;;;;;;;;;;6151400;23;20347;-86
2021/06/22 10:35:57;;;;;;;6.63;5.05;;;;;;;;;;6154502;23;20359;-86
2021/06/22 10:38:26;;;;;;;10.13;5.03;;;;;;;;;;6152084;23;20386;-87
2021/06/22 10:40:56;;;;;;;6.25;4.13;;;;;;;;;;6156734;23;20750;-85
2021/06/22 10:43:36;;;;;;;7.28;4.32;;;;;;;;;;6155424;23;20355;-85
2021/06/22 10:46:06;;;;;;;7.03;4.70;;;;;;;;;;6155289;23;20356;-85
2021/06/22 10:48:45;;;;;;;6.25;4.75;;;;;;;;;;6179687;23;20339;-88
2021/06/22 10:51:32;;;;;;;5.45;4.43;;;;;;;;;;6153479;23;20352;-87
2021/06/22 10:53:59;;;;;;;6.63;4.20;;;;;;;;;;6179407;23;20371;-85
2021/06/22 10:56:27;;;;;;;8.27;4.32;;;;;;;;;;6154786;23;20359;-87
2021/06/22 10:59:11;;;;;;;5.00;4.03;;;;;;;;;;6154828;23;20379;-87
2021/06/22 11:01:50;;;;;;;7.03;4.45;;;;;;;;;;6180838;23;20527;-86
2021/06/22 11:04:16;;;;;;;8.48;3.70;;;;;;;;;;6154438;23;20370;-88
2021/06/22 11:06:42;;;;;;;5.03;3.72;;;;;;;;;;6155139;23;20632;-89
2021/06/22 11:09:18;;;;;;;5.77;3.93;;;;;;;;;;6177244;23;20336;-86
2021/06/22 11:11:44;;;;;;;4.53;3.28;;;;;;;;;;6154488;23;20351;-88
2021/06/22 11:14:12;;;;;;;4.25;3.38;;;;;;;;;;6155124;23;20399;-86
2021/06/22 11:16:38;;;;;;;7.07;3.58;;;;;;;;;;6156463;23;20343;-87
2021/06/22 11:19:05;;;;;;;6.82;3.80;;;;;;;;;;6156647;23;20521;-86
2021/06/22 11:21:31;;;;;;;4.95;3.35;;;;;;;;;;6182281;23;20410;-87
2021/06/22 11:24:16;;;;;;;4.45;3.17;;;;;;;;;;6182593;23;20380;-87
2021/06/22 11:26:42;;;;;;;9.77;3.42;;;;;;;;;;6156441;23;20531;-85
2021/06/22 11:29:09;;;;;;;6.68;3.55;;;;;;;;;;6156374;23;20434;-87
2021/06/22 11:31:43;;;;;;;6.55;3.95;;;;;;;;;;6157526;23;20366;-88
2021/06/22 11:34:09;;;;;;;7.30;3.75;;;;;;;;;;6156525;23;20505;-85
2021/06/22 11:36:39;;;;;;;7.13;3.73;;;;;;;;;;6164646;23;20414;-86
2021/06/22 11:39:08;;;;;;;8.33;4.20;;;;;;;;;;6181596;23;20710;-86
2021/06/22 11:41:35;;;;;;;9.30;4.13;;;;;;;;;;6181376;23;20355;-87
2021/06/22 11:44:07;;;;;;;8.05;4.03;;;;;;;;;;6181513;23;20351;-83
2021/06/22 11:46:34;;;;;;;8.98;3.90;;;;;;;;;;6181129;23;20433;-89
2021/06/22 11:49:01;;;;;;;7.78;3.97;;;;;;;;;;6181465;23;20371;-86
2021/06/22 11:51:46;;;;;;;7.63;3.92;;;;;;;;;;6179866;23;20818;-88
2021/06/22 11:54:12;;;;;;;7.63;4.30;;;;;;;;;;6180828;23;20766;-86
2021/06/22 11:56:38;;;;;;;8.20;3.97;;;;;;;;;;6181090;23;20351;-85
2021/06/22 11:59:10;;;;;;;7.93;4.00;;;;;;;;;;6182397;23;20676;-89
2021/06/22 12:01:36;;;;;;;7.78;4.53;;;;;;;;;;6182041;23;20356;-87
2021/06/22 12:04:05;;;;;;;7.75;3.92;;;;;;;;;;6181289;23;20367;-85
2021/06/22 12:06:31;;;;;;;6.78;3.75;;;;;;;;;;6181526;23;20362;-86
2021/06/22 12:08:57;;;;;;;8.55;4.60;;;;;;;;;;6183536;23;20408;-86
2021/06/22 12:11:30;;;;;;;9.18;4.15;;;;;;;;;;6183658;23;20427;-83
2021/06/22 12:13:56;;;;;;;6.53;4.20;;;;;;;;;;6183711;23;20343;-86
2021/06/22 12:16:25;;;;;;;7.00;4.07;;;;;;;;;;6179682;23;20356;-90
2021/06/22 12:18:53;;;;;;;7.50;4.07;;;;;;;;;;6179795;23;20395;-88
2021/06/22 12:21:20;;;;;;;7.17;4.10;;;;;;;;;;6180839;23;20387;-88
2021/06/22 12:23:46;;;;;;;7.60;3.60;;;;;;;;;;6179666;23;20355;-85
2021/06/22 12:26:13;;;;;;;7.18;3.92;;;;;;;;;;6180671;23;20359;-85
2021/06/22 12:28:39;;;;;;;4.60;3.43;;;;;;;;;;6181894;23;20355;-87
2021/06/22 12:31:06;;;;;;;6.65;3.15;;;;;;;;;;6180418;23;20458;-87
2021/06/22 12:33:38;;;;;;;5.20;3.47;;;;;;;;;;6180784;23;20352;-86
2021/06/22 12:36:08;;;;;;;4.47;3.00;;;;;;;;;;6180799;23;20682;-89
2021/06/22 12:38:34;;;;;;;5.80;3.38;;;;;;;;;;6180859;23;20380;-87
2021/06/22 12:41:02;;;;;;;5.93;3.30;;;;;;;;;;6182264;23;20346;-88
2021/06/22 12:43:41;;;;;;;5.65;3.28;;;;;;;;;;6180964;23;20355;-86
2021/06/22 12:46:07;;;;;;;5.35;3.20;;;;;;;;;;6181518;23;20352;-87
2021/06/22 12:48:33;;;;;;;5.82;3.85;;;;;;;;;;6182554;23;20340;-85
2021/06/22 12:51:00;;;;;;;6.20;4.05;;;;;;;;;;6180907;23;20443;-89
2021/06/22 12:53:29;;;;;;;6.10;4.00;;;;;;;;;;6182701;23;20339;-87
2021/06/22 12:56:06;;;;;;;9.33;4.20;;;;;;;;;;6181588;23;20457;-85
2021/06/22 12:58:49;;;;;;;10.13;5.57;;;;;;;;;;6183021;23;20370;-86
2021/06/22 13:01:35;;;;;;;7.32;4.30;;;;;;;;;;6180382;23;20741;-83
2021/06/22 13:04:02;;;;;;;5.22;3.70;;;;;;;;;;6180027;23;21052;-87
2021/06/22 13:06:28;;;;;;;6.83;3.97;;;;;;;;;;6181075;23;20360;-86
2021/06/22 13:08:55;;;;;;;6.07;4.10;;;;;;;;;;6182952;23;20357;-86
2021/06/22 13:11:28;;;;;;;6.95;4.07;;;;;;;;;;6180669;23;20344;-87
2021/06/22 13:14:08;;;;;;;5.70;3.78;;;;;;;;;;6181130;23;20672;-87
2021/06/22 13:16:34;;;;;;;5.72;3.65;;;;;;;;;;6182489;23;20389;-86
2021/06/22 13:19:11;;;;;;;5.20;3.67;;;;;;;;;;6181684;23;20763;-87
2021/06/22 13:21:37;;;;;;;5.93;3.92;;;;;;;;;;6183011;23;20382;-87
2021/06/22 13:24:03;;;;;;;6.50;3.60;;;;;;;;;;6181769;23;20354;-85
2021/06/22 13:26:29;;;;;;;6.18;3.35;;;;;;;;;;6182098;23;20351;-86
2021/06/22 13:28:59;;;;;;;8.90;3.60;;;;;;;;;;6180568;23;20490;-86
2021/06/22 14:32:56;;;;;;;4.93;3.27;;;;;;;;;;5139342;27;20368;-86
2021/06/22 14:35:23;;;;;;;8.90;3.38;;;;;;;;;;5105815;28;20957;-88
2021/06/22 14:37:49;;;;;;;6.93;3.03;;;;;;;;;;5104534;28;20407;-88
2021/06/22 14:40:20;;;;;;;10.38;3.67;;;;;;;;;;5104715;28;20400;-88
2021/06/22 14:42:47;;;;;;;14.43;4.20;;;;;;;;;;5104907;28;20387;-87
2021/06/22 14:45:14;;;;;;;7.57;3.33;;;;;;;;;;5106544;28;20734;-87
2021/06/22 14:47:40;;;;;;;5.32;3.17;;;;;;;;;;5105189;28;20380;-89
2021/06/22 14:50:07;;;;;;;6.00;3.13;;;;;;;;;;5105909;28;20440;-88
2021/06/22 14:52:33;;;;;;;5.55;3.00;;;;;;;;;;5105017;28;20439;-88
2021/06/22 14:54:59;;;;;;;6.70;3.28;;;;;;;;;;5107031;28;20372;-86
2021/06/22 14:57:25;;;;;;;5.87;3.20;;;;;;;;;;5106029;28;20467;-86
2021/06/22 14:59:51;;;;;;;7.70;3.45;;;;;;;;;;5105049;28;20372;-90
2021/06/22 15:02:17;;;;;;;7.43;3.40;;;;;;;;;;5106044;28;20425;-87
2021/06/22 15:04:43;;;;;;;5.55;2.90;;;;;;;;;;5106020;28;20388;-89
2021/06/22 15:07:09;;;;;;;6.60;3.30;;;;;;;;;;5103896;28;20388;-88
2021/06/22 15:09:43;;;;;;;4.60;2.85;;;;;;;;;;5104867;28;20395;-90
2021/06/22 15:12:10;;;;;;;5.78;3.05;;;;;;;;;;5108588;28;20409;-88
2021/06/22 15:14:38;;;;;;;3.47;2.70;;;;;;;;;;5105922;28;20379;-91
2021/06/22 15:17:04;;;;;;;5.13;3.05;;;;;;;;;;5105654;28;20922;-90
2021/06/22 15:19:30;;;;;;;7.10;3.22;;;;;;;;;;5104121;28;20714;-91
2021/06/22 15:21:56;;;;;;;5.03;2.90;;;;;;;;;;5105234;28;20372;-89
2021/06/22 15:24:22;;;;;;;6.35;3.08;;;;;;;;;;5105155;28;20867;-86
2021/06/22 15:26:49;;;;;;;5.18;2.80;;;;;;;;;;5101545;28;20440;-88
2021/06/22 15:29:25;;;;;;;4.93;2.65;;;;;;;;;;5104809;28;20936;-86
2021/06/22 15:31:53;;;;;;;6.18;3.13;;;;;;;;;;5104413;28;20399;-87
2021/06/22 15:34:19;;;;;;;8.90;2.97;;;;;;;;;;5105355;28;20384;-90
2021/06/22 15:36:45;;;;;;;4.13;2.65;;;;;;;;;;5104716;28;20373;-88
2021/06/22 15:39:11;;;;;;;8.20;3.00;;;;;;;;;;5104536;28;20367;-85
2021/06/22 15:41:37;;;;;;;4.10;2.50;;;;;;;;;;5106654;28;20457;-89